createdAt,value
2017-04-28T00:02:20.137Z,4.75
2017-04-28T00:04:55.545Z,11.05
2017-04-28T00:07:30.674Z,4.33
2017-04-28T00:10:05.725Z,4.72
2017-04-28T00:12:41.325Z,4.32
2017-04-28T00:15:16.710Z,5.33
2017-04-28T00:17:52.493Z,4.07
2017-04-28T00:20:28.715Z,10.63
2017-04-28T00:23:03.977Z,5.73
2017-04-28T00:25:39.231Z,5.35
2017-04-28T00:28:14.469Z,5.93
2017-04-28T00:30:49.771Z,5.82
2017-04-28T00:33:25.687Z,4.80
2017-04-28T00:36:00.962Z,4.90
2017-04-28T00:38:36.194Z,6.52
2017-04-28T00:44:17.285Z,4.65
2017-04-28T00:46:52.431Z,4.87
2017-04-28T00:49:28.523Z,5.75
2017-04-28T00:52:03.831Z,11.15
2017-04-28T00:54:39.878Z,3.60
2017-04-28T00:57:15.026Z,4.40
2017-04-28T00:59:50.965Z,7.17
2017-04-28T01:02:26.325Z,5.03
2017-04-28T01:05:01.853Z,6.45
2017-04-28T01:07:37.096Z,5.45
2017-04-28T01:10:12.363Z,5.35
2017-04-28T01:12:47.627Z,5.22
2017-04-28T01:15:22.701Z,9.30
2017-04-28T01:17:57.961Z,10.03
2017-04-28T01:20:33.083Z,8.77
2017-04-28T01:23:08.353Z,6.05
2017-04-28T01:25:43.693Z,6.33
2017-04-28T01:28:19.022Z,10.62
2017-04-28T01:30:54.257Z,5.77
2017-04-28T01:33:29.476Z,10.25
2017-04-28T01:36:04.835Z,5.05
2017-04-28T01:38:40.059Z,7.08
2017-04-28T01:41:15.380Z,7.82
2017-04-28T01:43:50.594Z,6.23
2017-04-28T01:46:26.081Z,6.72
2017-04-28T01:49:01.644Z,6.37
2017-04-28T01:51:36.852Z,10.42
2017-04-28T01:54:12.187Z,11.50
2017-04-28T01:56:48.179Z,7.93
2017-04-28T01:59:23.845Z,10.02
2017-04-28T02:01:59.930Z,7.50
2017-04-28T02:04:35.126Z,9.68
2017-04-28T02:07:10.317Z,9.38
2017-04-28T02:09:45.525Z,7.78
2017-04-28T02:12:20.812Z,9.38
2017-04-28T02:14:56.462Z,7.70
2017-04-28T02:17:31.616Z,9.68
2017-04-28T02:20:06.991Z,10.12
2017-04-28T02:22:42.108Z,7.28
2017-04-28T02:25:17.369Z,7.35
2017-04-28T02:27:52.773Z,9.47
2017-04-28T02:30:27.957Z,8.85
2017-04-28T02:33:03.181Z,10.38
2017-04-28T02:35:38.992Z,9.95
2017-04-28T02:38:14.988Z,9.38
2017-04-28T02:40:50.038Z,8.37
2017-04-28T02:43:25.256Z,9.98
2017-04-28T02:46:01.393Z,11.08
2017-04-28T02:48:36.797Z,13.15
2017-04-28T02:51:11.974Z,11.52
2017-04-28T02:53:46.977Z,9.97
2017-04-28T02:56:22.268Z,9.22
2017-04-28T02:58:57.485Z,10.13
2017-04-28T03:01:32.610Z,11.45
2017-04-28T03:04:07.963Z,11.03
2017-04-28T03:06:43.121Z,12.72
2017-04-28T03:09:18.268Z,10.13
2017-04-28T03:11:53.468Z,9.80
2017-04-28T03:14:29.318Z,11.00
2017-04-28T03:17:04.563Z,13.77
2017-04-28T03:19:39.608Z,10.68
2017-04-28T03:22:15.841Z,13.15
2017-04-28T03:24:51.085Z,12.05
2017-04-28T03:27:26.317Z,10.93
2017-04-28T03:30:01.872Z,11.90
2017-04-28T03:32:37.035Z,11.93
2017-04-28T03:35:12.414Z,11.10
2017-04-28T03:37:47.786Z,13.03
2017-04-28T03:40:23.064Z,12.70
2017-04-28T03:42:58.435Z,12.70
2017-04-28T03:45:33.722Z,10.83
2017-04-28T03:48:08.929Z,11.67
2017-04-28T03:50:44.098Z,15.13
2017-04-28T03:53:19.291Z,13.17
2017-04-28T03:55:55.278Z,10.70
2017-04-28T03:58:30.725Z,14.83
2017-04-28T04:01:06.043Z,14.50
2017-04-28T04:03:42.222Z,14.12
2017-04-28T04:06:18.140Z,14.18
2017-04-28T04:08:53.348Z,14.37
2017-04-28T04:11:28.565Z,14.42
2017-04-28T04:14:04.011Z,13.65
2017-04-28T04:16:39.330Z,14.88
2017-04-28T04:19:15.703Z,12.37
2017-04-28T04:21:51.629Z,18.18
2017-04-28T04:24:27.658Z,14.15
2017-04-28T04:27:03.001Z,10.40
2017-04-28T04:29:38.356Z,11.48
2017-04-28T04:32:13.733Z,18.45
2017-04-28T04:34:48.897Z,12.98
2017-04-28T04:37:24.981Z,12.45
2017-04-28T04:40:00.181Z,15.98
2017-04-28T04:42:35.328Z,16.03
2017-04-28T04:45:10.550Z,12.95
2017-04-28T04:47:46.104Z,16.02
2017-04-28T04:50:22.836Z,13.87
2017-04-28T04:52:58.214Z,16.20
2017-04-28T04:55:33.436Z,15.48
2017-04-28T04:58:09.601Z,14.92
2017-04-28T05:00:44.817Z,17.27
2017-04-28T05:03:20.396Z,15.83
2017-04-28T05:05:56.113Z,17.37
2017-04-28T05:08:31.576Z,17.35
2017-04-28T05:11:06.920Z,15.33
2017-04-28T05:13:42.173Z,18.12
2017-04-28T05:16:17.337Z,14.42
2017-04-28T05:18:53.816Z,23.63
2017-04-28T05:21:30.039Z,22.07
2017-04-28T05:24:06.285Z,16.53
2017-04-28T05:26:42.312Z,15.38
2017-04-28T05:29:17.398Z,15.03
2017-04-28T05:31:52.820Z,17.43
2017-04-28T05:34:28.022Z,18.77
2017-04-28T05:37:03.235Z,18.60
2017-04-28T05:39:38.290Z,16.87
2017-04-28T05:42:13.582Z,18.05
2017-04-28T05:44:48.741Z,20.55
2017-04-28T05:47:23.943Z,18.12
2017-04-28T05:49:59.294Z,18.65
2017-04-28T05:52:34.393Z,20.43
2017-04-28T05:55:09.435Z,16.07
2017-04-28T05:57:44.606Z,19.75
2017-04-28T06:00:20.595Z,16.98
2017-04-28T06:02:56.564Z,16.28
2017-04-28T06:05:31.880Z,19.97
2017-04-28T06:08:07.115Z,20.25
2017-04-28T06:10:42.373Z,21.22
2017-04-28T06:13:17.584Z,23.50
2017-04-28T06:15:53.012Z,20.42
2017-04-28T06:18:28.213Z,17.18
2017-04-28T06:21:03.506Z,15.62
2017-04-28T06:23:38.711Z,19.28
2017-04-28T06:26:13.921Z,15.65
2017-04-28T06:28:49.054Z,15.10
2017-04-28T06:31:24.200Z,13.90
2017-04-28T06:33:59.420Z,16.55
2017-04-28T06:36:34.914Z,16.63
2017-04-28T06:39:10.142Z,20.48
2017-04-28T06:41:45.373Z,16.68
2017-04-28T06:47:25.372Z,16.75
2017-04-28T06:50:00.472Z,14.32
2017-04-28T06:52:35.929Z,18.20
2017-04-28T06:55:11.889Z,17.02
2017-04-28T06:57:47.945Z,18.58
2017-04-28T07:00:23.283Z,19.17
2017-04-28T07:02:58.726Z,15.88
2017-04-28T07:05:34.672Z,17.85
2017-04-28T07:08:10.129Z,17.00
2017-04-28T07:10:45.369Z,19.15
2017-04-28T07:13:20.920Z,19.43
2017-04-28T07:15:56.170Z,17.32
2017-04-28T07:18:31.486Z,17.85
2017-04-28T07:21:06.709Z,19.93
2017-04-28T07:23:42.077Z,16.32
2017-04-28T07:26:17.223Z,17.02
2017-04-28T07:28:53.269Z,21.63
2017-04-28T07:31:28.398Z,17.62
2017-04-28T07:34:03.645Z,19.52
2017-04-28T07:36:38.877Z,15.52
2017-04-28T07:39:13.977Z,26.00
2017-04-28T07:41:49.989Z,18.73
2017-04-28T07:44:25.318Z,17.77
2017-04-28T07:47:00.449Z,18.50
2017-04-28T07:49:35.998Z,17.75
2017-04-28T07:52:11.218Z,19.72
2017-04-28T07:54:46.485Z,17.78
2017-04-28T07:57:21.635Z,19.10
2017-04-28T07:59:56.978Z,21.22
2017-04-28T08:02:32.342Z,24.35
2017-04-28T08:05:07.774Z,18.22
2017-04-28T08:07:42.868Z,20.48
2017-04-28T08:10:18.057Z,20.95
2017-04-28T08:12:53.270Z,17.82
2017-04-28T08:15:28.690Z,23.22
2017-04-28T08:18:03.942Z,17.25
2017-04-28T08:20:39.921Z,17.30
2017-04-28T08:23:15.909Z,15.32
2017-04-28T08:25:51.277Z,17.25
2017-04-28T08:28:26.508Z,24.65
2017-04-28T08:31:02.800Z,17.48
2017-04-28T08:33:38.707Z,19.55
2017-04-28T08:36:13.912Z,17.28
2017-04-28T08:38:49.895Z,16.82
2017-04-28T08:41:25.115Z,18.22
2017-04-28T08:44:00.370Z,17.70
2017-04-28T08:46:35.401Z,19.33
2017-04-28T08:49:10.526Z,21.03
2017-04-28T08:51:46.009Z,18.85
2017-04-28T08:54:21.023Z,17.80
2017-04-28T08:56:56.693Z,19.58
2017-04-28T08:59:31.800Z,20.02
2017-04-28T09:02:06.899Z,23.55
2017-04-28T09:04:42.069Z,25.53
2017-04-28T09:07:17.409Z,17.73
2017-04-28T09:09:53.369Z,21.33
2017-04-28T09:12:28.569Z,22.45
2017-04-28T09:15:03.794Z,24.47
2017-04-28T09:17:38.939Z,15.57
2017-04-28T09:20:14.161Z,17.05
2017-04-28T09:22:49.231Z,22.57
2017-04-28T09:25:24.314Z,18.30
2017-04-28T09:27:59.625Z,24.80
2017-04-28T09:30:35.001Z,18.45
2017-04-28T09:33:10.454Z,16.30
2017-04-28T09:35:45.684Z,22.90
2017-04-28T09:38:20.926Z,17.72
2017-04-28T09:40:56.358Z,19.42
2017-04-28T09:43:31.713Z,21.87
2017-04-28T09:46:07.778Z,21.53
2017-04-28T09:48:43.014Z,18.43
2017-04-28T09:51:18.453Z,17.48
2017-04-28T09:53:53.681Z,17.30
2017-04-28T09:56:29.118Z,15.18
2017-04-28T09:59:04.853Z,17.78
2017-04-28T10:01:40.110Z,17.40
2017-04-28T10:04:15.508Z,15.10
2017-04-28T10:06:51.649Z,13.83
2017-04-28T10:09:26.985Z,15.23
2017-04-28T10:12:02.199Z,14.22
2017-04-28T10:14:37.976Z,13.15
2017-04-28T10:17:13.226Z,10.62
2017-04-28T10:19:49.241Z,12.02
2017-04-28T10:22:31.341Z,11.43
2017-04-28T10:25:07.529Z,12.03
2017-04-28T10:27:42.665Z,9.35
2017-04-28T10:30:18.800Z,12.25
2017-04-28T10:32:54.004Z,11.07
2017-04-28T10:35:29.229Z,14.42
2017-04-28T10:38:05.524Z,17.40
2017-04-28T10:40:42.008Z,11.25
2017-04-28T10:43:17.238Z,12.05
2017-04-28T10:45:52.487Z,12.85
2017-04-28T10:48:27.725Z,11.18
2017-04-28T10:51:03.142Z,15.58
2017-04-28T10:53:38.413Z,12.78
2017-04-28T10:56:14.560Z,12.78
2017-04-28T10:58:50.519Z,19.68
2017-04-28T11:01:27.552Z,13.52
2017-04-28T11:04:03.553Z,15.08
2017-04-28T11:06:39.125Z,13.95
2017-04-28T11:09:14.245Z,15.35
2017-04-28T11:11:49.618Z,12.25
2017-04-28T11:14:25.100Z,12.20
2017-04-28T11:17:00.498Z,12.63
2017-04-28T11:19:35.677Z,12.47
2017-04-28T11:22:13.484Z,14.43
2017-04-28T11:24:49.840Z,9.63
2017-04-28T11:27:25.905Z,13.40
2017-04-28T11:30:01.153Z,12.47
2017-04-28T11:32:36.417Z,14.15
2017-04-28T11:35:11.686Z,9.37
2017-04-28T11:37:47.125Z,11.27
2017-04-28T11:40:22.545Z,8.93
2017-04-28T11:42:57.789Z,9.30
2017-04-28T11:45:33.844Z,10.50
2017-04-28T11:48:09.881Z,17.20
2017-04-28T11:50:45.902Z,9.65
2017-04-28T11:53:21.117Z,8.17
2017-04-28T11:55:56.334Z,9.32
2017-04-28T11:58:31.654Z,8.37
2017-04-28T12:01:06.861Z,9.17
2017-04-28T12:03:42.034Z,12.43
2017-04-28T12:06:17.950Z,10.32
2017-04-28T12:08:53.261Z,8.48
2017-04-28T12:11:28.603Z,9.47
2017-04-28T12:14:03.813Z,12.07
2017-04-28T12:16:38.940Z,7.57
2017-04-28T12:19:13.953Z,7.40
2017-04-28T12:21:50.663Z,4.82
2017-04-28T12:24:25.803Z,7.27
2017-04-28T12:27:01.421Z,11.13
2017-04-28T12:29:36.515Z,5.60
2017-04-28T12:32:11.892Z,5.45
2017-04-28T12:34:46.992Z,7.40
2017-04-28T12:37:23.091Z,7.48
2017-04-28T12:39:58.433Z,7.02
2017-04-28T12:42:33.713Z,7.33
2017-04-28T12:45:08.915Z,6.95
2017-04-28T12:47:44.989Z,5.28
2017-04-28T12:50:20.289Z,3.65
2017-04-28T12:52:55.556Z,4.33
2017-04-28T12:55:30.823Z,3.42
2017-04-28T12:58:06.063Z,6.05
2017-04-28T13:00:41.288Z,3.30
2017-04-28T13:03:17.410Z,3.85
2017-04-28T13:05:56.449Z,4.45
2017-04-28T13:08:32.812Z,1.80
2017-04-28T13:11:08.032Z,2.18
2017-04-28T13:13:43.389Z,2.90
2017-04-28T13:16:19.316Z,2.75
2017-04-28T13:18:55.410Z,1.82
2017-04-28T13:21:30.663Z,2.02
2017-04-28T13:24:06.035Z,2.55
2017-04-28T13:26:41.129Z,3.58
2017-04-28T13:29:16.390Z,2.00
2017-04-28T13:31:51.629Z,2.88
2017-04-28T13:34:26.948Z,3.05
2017-04-28T13:37:02.137Z,2.68
2017-04-28T13:39:37.313Z,3.02
2017-04-28T13:42:12.668Z,2.28
2017-04-28T13:44:48.615Z,2.73
2017-04-28T13:47:26.776Z,2.73
2017-04-28T13:50:01.959Z,1.70
2017-04-28T13:52:37.085Z,2.25
2017-04-28T13:55:12.353Z,1.65
2017-04-28T13:57:48.453Z,3.42
2017-04-28T14:00:23.661Z,2.05
2017-04-28T14:02:59.681Z,1.95
2017-04-28T14:05:35.502Z,3.52
2017-04-28T14:08:10.742Z,3.10
2017-04-28T14:10:45.976Z,4.32
2017-04-28T14:13:20.958Z,2.78
2017-04-28T14:15:56.197Z,1.93
2017-04-28T14:18:32.046Z,1.87
2017-04-28T14:21:08.257Z,1.80
2017-04-28T14:23:43.536Z,2.65
2017-04-28T14:26:18.749Z,5.30
2017-04-28T14:28:53.962Z,2.42
2017-04-28T14:31:29.239Z,2.60
2017-04-28T14:34:05.025Z,2.63
2017-04-28T14:36:40.237Z,2.15
2017-04-28T14:39:15.333Z,2.75
2017-04-28T14:41:50.641Z,2.27
2017-04-28T14:44:26.681Z,4.83
2017-04-28T14:47:01.877Z,4.12
2017-04-28T14:49:37.144Z,1.93
2017-04-28T14:52:13.200Z,2.50
2017-04-28T14:54:48.195Z,2.77
2017-04-28T14:57:23.385Z,1.73
2017-04-28T14:59:59.221Z,5.28
2017-04-28T15:02:34.448Z,6.52
2017-04-28T15:05:09.510Z,2.25
2017-04-28T15:07:44.721Z,1.93
2017-04-28T15:10:19.816Z,2.22
2017-04-28T15:12:55.027Z,1.97
2017-04-28T15:15:30.304Z,4.22
2017-04-28T15:18:05.697Z,2.80
2017-04-28T15:20:41.640Z,4.82
2017-04-28T15:23:17.248Z,2.62
2017-04-28T15:25:52.348Z,2.85
2017-04-28T15:28:27.389Z,9.68
2017-04-28T15:31:02.637Z,3.13
2017-04-28T15:33:38.057Z,6.90
2017-04-28T15:36:14.124Z,4.45
2017-04-28T15:38:49.565Z,2.97
2017-04-28T15:41:24.746Z,3.55
2017-04-28T15:44:00.017Z,3.27
2017-04-28T15:46:35.946Z,3.10
2017-04-28T15:49:11.106Z,3.40
2017-04-28T15:51:46.274Z,2.97
2017-04-28T15:54:21.413Z,3.15
2017-04-28T15:56:56.748Z,4.40
2017-04-28T15:59:31.966Z,3.98
2017-04-28T16:02:07.815Z,2.43
2017-04-28T16:04:43.257Z,4.02
2017-04-28T16:07:18.536Z,4.27
2017-04-28T16:12:57.575Z,5.05
2017-04-28T16:15:33.024Z,4.23
2017-04-28T16:18:08.450Z,7.62
2017-04-28T16:20:43.675Z,4.80
2017-04-28T16:23:18.967Z,4.33
2017-04-28T16:25:54.721Z,8.58
2017-04-28T16:28:30.106Z,2.33
2017-04-28T16:31:05.375Z,4.50
2017-04-28T16:33:40.789Z,3.98
2017-04-28T16:36:15.942Z,3.70
2017-04-28T16:38:51.264Z,3.30
2017-04-28T16:41:26.600Z,3.70
2017-04-28T16:44:01.932Z,8.85
2017-04-28T16:46:37.849Z,5.82
2017-04-28T16:49:13.349Z,3.23
2017-04-28T16:51:48.689Z,3.12
2017-04-28T16:54:24.725Z,2.50
2017-04-28T16:56:59.933Z,2.38
2017-04-28T16:59:35.041Z,3.40
2017-04-28T17:02:10.779Z,3.58
2017-04-28T17:04:45.794Z,4.77
2017-04-28T17:07:21.053Z,7.72
2017-04-28T17:09:56.993Z,3.97
2017-04-28T17:12:32.364Z,2.95
2017-04-28T17:15:08.234Z,3.83
2017-04-28T17:17:43.391Z,3.05
2017-04-28T17:20:19.379Z,3.05
2017-04-28T17:22:54.582Z,3.87
2017-04-28T17:25:30.344Z,4.43
2017-04-28T17:28:05.605Z,4.63
2017-04-28T17:30:40.888Z,4.25
2017-04-28T17:33:16.082Z,4.17
2017-04-28T17:35:51.652Z,4.75
2017-04-28T17:38:27.645Z,2.52
2017-04-28T17:41:02.681Z,3.10
2017-04-28T17:43:37.753Z,1.95
2017-04-28T17:46:12.833Z,5.27
2017-04-28T17:48:48.043Z,3.00
2017-04-28T17:51:24.013Z,6.08
2017-04-28T17:53:59.216Z,2.15
2017-04-28T17:56:35.170Z,5.68
2017-04-28T17:59:11.239Z,4.98
2017-04-28T18:01:46.466Z,5.05
2017-04-28T18:04:22.473Z,4.67
2017-04-28T18:06:57.955Z,6.92
2017-04-28T18:09:33.230Z,2.95
2017-04-28T18:12:08.670Z,5.12
2017-04-28T18:14:43.773Z,5.78
2017-04-28T18:17:19.067Z,2.02
2017-04-28T18:19:54.379Z,7.02
2017-04-28T18:22:30.031Z,2.85
2017-04-28T18:25:05.237Z,4.12
2017-04-28T18:27:41.017Z,4.08
2017-04-28T18:30:16.283Z,2.73
2017-04-28T18:32:51.563Z,3.23
2017-04-28T18:35:26.814Z,2.67
2017-04-28T18:38:02.015Z,6.93
2017-04-28T18:40:38.857Z,7.72
2017-04-28T18:43:14.205Z,3.85
2017-04-28T18:45:49.211Z,6.88
2017-04-28T18:48:24.365Z,3.83
2017-04-28T18:50:59.565Z,3.37
2017-04-28T18:53:34.788Z,3.73
2017-04-28T18:56:09.854Z,2.20
2017-04-28T18:58:45.000Z,2.55
2017-04-28T19:01:20.249Z,3.73
2017-04-28T19:03:55.619Z,1.57
2017-04-28T19:06:30.909Z,1.70
2017-04-28T19:09:06.279Z,1.87
2017-04-28T19:11:42.490Z,2.68
2017-04-28T19:14:18.081Z,2.05
2017-04-28T19:16:53.357Z,1.82
2017-04-28T19:19:28.756Z,2.47
2017-04-28T19:22:03.876Z,3.57
2017-04-28T19:24:39.139Z,3.30
2017-04-28T19:27:14.493Z,2.50
2017-04-28T19:29:49.786Z,1.92
2017-04-28T19:32:25.640Z,1.82
2017-04-28T19:35:01.805Z,2.22
2017-04-28T19:37:36.948Z,2.67
2017-04-28T19:40:12.506Z,2.67
2017-04-28T19:42:47.733Z,2.43
2017-04-28T19:45:23.290Z,2.48
2017-04-28T19:47:59.151Z,6.42
2017-04-28T19:50:35.193Z,5.72
2017-04-28T19:53:10.266Z,5.97
2017-04-28T19:55:45.703Z,4.67
2017-04-28T19:58:21.832Z,4.30
2017-04-28T20:00:57.169Z,4.12
2017-04-28T20:03:32.682Z,4.98
2017-04-28T20:06:07.867Z,3.43
2017-04-28T20:08:45.947Z,3.17
2017-04-28T20:11:22.201Z,3.50
2017-04-28T20:13:57.755Z,5.30
2017-04-28T20:16:33.837Z,8.50
2017-04-28T20:19:09.124Z,3.30
2017-04-28T20:21:44.518Z,7.02
2017-04-28T20:24:19.952Z,9.55
2017-04-28T20:26:55.022Z,6.05
2017-04-28T20:29:30.423Z,6.88
2017-04-28T20:32:07.003Z,4.80
2017-04-28T20:34:42.570Z,5.07
2017-04-28T20:37:18.161Z,6.00
2017-04-28T20:39:57.671Z,3.22
2017-04-28T20:42:34.893Z,3.05
2017-04-28T20:45:14.467Z,9.42
2017-04-28T20:47:50.661Z,5.40
2017-04-28T20:50:27.709Z,3.08
2017-04-28T20:53:04.094Z,11.08
2017-04-28T20:55:39.842Z,3.93
2017-04-28T20:58:17.407Z,3.35
2017-04-28T21:00:55.005Z,8.13
2017-04-28T21:03:30.239Z,3.93
2017-04-28T21:06:05.653Z,3.83
2017-04-28T21:08:41.576Z,4.85
2017-04-28T21:11:16.986Z,3.68
2017-04-28T21:13:52.041Z,8.78
2017-04-28T21:16:27.398Z,5.90
2017-04-28T21:19:05.146Z,7.48
2017-04-28T21:21:41.781Z,4.17
2017-04-28T21:24:18.561Z,5.70
2017-04-28T21:26:54.752Z,2.73
2017-04-28T21:29:30.655Z,7.65
2017-04-28T21:32:06.099Z,8.58
2017-04-28T21:34:41.369Z,3.37
2017-04-28T21:37:16.712Z,3.10
2017-04-28T21:39:51.832Z,6.90
2017-04-28T21:42:27.462Z,7.87
2017-04-28T21:45:02.656Z,5.67
2017-04-28T21:47:38.314Z,5.80
2017-04-28T21:50:13.313Z,3.58
2017-04-28T21:52:49.391Z,2.65
2017-04-28T21:55:25.150Z,3.33
2017-04-28T21:58:01.087Z,4.45
2017-04-28T22:00:36.355Z,9.27
2017-04-28T22:03:11.769Z,7.07
2017-04-28T22:05:46.921Z,6.22
2017-04-28T22:08:22.032Z,2.48
2017-04-28T22:10:58.405Z,3.57
2017-04-28T22:13:34.190Z,2.82
2017-04-28T22:16:15.237Z,3.60
2017-04-28T22:18:51.224Z,4.88
2017-04-28T22:21:28.101Z,7.00
2017-04-28T22:24:04.117Z,5.18
2017-04-28T22:26:39.375Z,4.78
2017-04-28T22:29:14.624Z,2.72
2017-04-28T22:31:50.046Z,2.75
2017-04-28T22:34:26.005Z,2.63
2017-04-28T22:37:01.362Z,2.40
2017-04-28T22:39:37.618Z,7.98
2017-04-28T22:42:13.662Z,5.47
2017-04-28T22:44:49.107Z,9.35
2017-04-28T22:47:25.064Z,8.27
2017-04-28T22:50:00.397Z,6.57
2017-04-28T22:52:36.275Z,5.37
2017-04-28T22:55:12.245Z,4.07
2017-04-28T22:57:48.155Z,6.35
2017-04-28T23:00:24.024Z,6.38
2017-04-28T23:02:59.018Z,3.72
2017-04-28T23:05:34.508Z,4.62
2017-04-28T23:08:10.543Z,7.15
2017-04-28T23:10:47.632Z,2.83
2017-04-28T23:13:22.991Z,3.42
2017-04-28T23:15:58.421Z,2.83
2017-04-28T23:18:33.668Z,3.95
2017-04-28T23:21:09.017Z,4.17
2017-04-28T23:23:44.340Z,3.23
2017-04-28T23:26:19.749Z,4.08
2017-04-28T23:28:54.934Z,5.33
2017-04-28T23:31:30.769Z,2.90
2017-04-28T23:34:06.025Z,3.70
2017-04-28T23:36:41.453Z,3.70
2017-04-28T23:39:16.581Z,3.78
2017-04-28T23:41:52.029Z,4.57
2017-04-28T23:44:27.682Z,3.00
2017-04-28T23:47:02.955Z,5.07
2017-04-28T23:49:38.863Z,2.82
2017-04-28T23:52:14.812Z,5.10
2017-04-28T23:54:50.113Z,4.13
2017-04-28T23:57:25.336Z,4.45
